createdAt,value
2018-11-05T05:01:53.706Z,11.30
2018-11-05T05:04:21.906Z,11.70
2018-11-05T05:06:50.150Z,11.60
2018-11-05T05:09:18.444Z,11.70
2018-11-05T05:11:46.673Z,11.70
2018-11-05T05:14:14.867Z,11.70
2018-11-05T05:16:43.140Z,11.80
2018-11-05T05:19:11.413Z,11.80
2018-11-05T05:21:39.690Z,11.80
2018-11-05T05:24:07.909Z,11.80
2018-11-05T05:26:36.145Z,11.90
2018-11-05T05:29:04.377Z,11.80
2018-11-05T05:31:32.637Z,11.90
2018-11-05T05:34:00.838Z,11.90
2018-11-05T05:36:29.055Z,11.80
2018-11-05T05:38:57.291Z,11.90
2018-11-05T05:41:25.668Z,11.80
2018-11-05T05:43:53.822Z,11.80
2018-11-05T05:46:22.047Z,11.90
2018-11-05T05:48:50.274Z,11.90
2018-11-05T05:51:18.515Z,11.80
2018-11-05T05:53:46.728Z,11.90
2018-11-05T05:56:14.968Z,11.90
2018-11-05T05:58:43.180Z,11.90
2018-11-05T06:01:11.453Z,11.90
2018-11-05T06:03:39.638Z,11.90
2018-11-05T06:06:08.397Z,11.80
2018-11-05T06:08:36.644Z,11.80
2018-11-05T06:11:05.016Z,11.90
2018-11-05T06:13:33.301Z,11.90
2018-11-05T06:16:01.753Z,12.00
2018-11-05T06:18:29.821Z,12.00
2018-11-05T06:20:58.058Z,12.00
2018-11-05T06:23:26.394Z,12.00
2018-11-05T06:25:54.747Z,11.90
2018-11-05T06:28:22.943Z,11.90
2018-11-05T06:30:51.128Z,11.90
2018-11-05T06:33:19.333Z,12.00
2018-11-05T06:35:47.593Z,12.00
2018-11-05T06:38:15.792Z,12.00
2018-11-05T06:40:44.094Z,12.00
2018-11-05T06:43:12.353Z,12.00
2018-11-05T06:45:40.626Z,12.00
2018-11-05T06:48:08.865Z,12.00
2018-11-05T06:50:37.053Z,12.10
2018-11-05T06:53:05.517Z,12.10
2018-11-05T06:55:33.788Z,12.10
2018-11-05T06:58:02.088Z,12.10
2018-11-05T07:00:30.339Z,12.10
2018-11-05T07:02:58.586Z,12.10
2018-11-05T07:05:26.765Z,12.10
2018-11-05T07:07:55.053Z,12.10
2018-11-05T07:10:23.293Z,12.10
2018-11-05T07:12:51.627Z,12.20
2018-11-05T07:15:20.310Z,12.20
2018-11-05T07:17:49.364Z,12.20
2018-11-05T07:20:18.758Z,12.10
2018-11-05T07:22:47.874Z,12.20
2018-11-05T07:25:16.425Z,12.10
2018-11-05T07:27:44.733Z,12.10
2018-11-05T07:30:15.159Z,12.20
2018-11-05T07:32:43.377Z,12.30
2018-11-05T07:35:12.879Z,12.30
2018-11-05T07:37:41.512Z,12.40
2018-11-05T07:40:11.332Z,12.40
2018-11-05T07:42:39.687Z,12.50
2018-11-05T07:45:09.954Z,12.40
2018-11-05T07:47:38.206Z,12.40
2018-11-05T07:50:08.479Z,12.40
2018-11-05T07:52:37.258Z,12.30
2018-11-05T07:55:06.468Z,12.30
2018-11-05T07:57:34.662Z,12.40
2018-11-05T08:00:02.950Z,12.40
2018-11-05T08:02:31.209Z,12.40
2018-11-05T08:04:59.513Z,12.50
2018-11-05T08:07:27.735Z,12.50
2018-11-05T08:09:55.896Z,12.50
2018-11-05T08:12:24.170Z,12.50
2018-11-05T08:14:52.383Z,12.50
2018-11-05T08:17:20.594Z,12.50
2018-11-05T08:19:48.805Z,12.60
2018-11-05T08:22:17.010Z,12.70
2018-11-05T08:24:45.257Z,12.60
2018-11-05T08:27:13.489Z,12.60
2018-11-05T08:29:41.734Z,12.70
2018-11-05T08:32:09.958Z,12.70
2018-11-05T08:34:38.203Z,12.80
2018-11-05T08:37:06.441Z,12.80
2018-11-05T08:39:34.702Z,12.80
2018-11-05T08:42:02.905Z,12.80
2018-11-05T08:44:31.113Z,12.80
2018-11-05T08:46:59.453Z,12.90
2018-11-05T08:49:27.607Z,12.90
2018-11-05T08:51:55.820Z,13.00
2018-11-05T08:54:24.015Z,12.90
2018-11-05T08:56:52.256Z,13.00
2018-11-05T08:59:20.517Z,13.10
2018-11-05T09:01:48.718Z,13.20
2018-11-05T09:04:17.024Z,13.10
2018-11-05T09:06:45.280Z,13.20
2018-11-05T09:09:13.510Z,13.20
2018-11-05T09:11:41.782Z,13.30
2018-11-05T09:14:09.933Z,13.30
2018-11-05T09:16:38.175Z,13.30
2018-11-05T09:19:06.391Z,13.40
2018-11-05T09:21:34.633Z,13.40
2018-11-05T09:24:02.885Z,13.50
2018-11-05T09:26:31.153Z,13.40
2018-11-05T09:28:59.370Z,13.50
2018-11-05T09:31:27.577Z,13.50
2018-11-05T09:33:55.759Z,13.50
2018-11-05T09:36:23.992Z,13.50
2018-11-05T09:38:52.219Z,13.50
2018-11-05T09:41:20.479Z,13.50
2018-11-05T09:43:48.807Z,13.50
2018-11-05T09:46:17.008Z,13.50
2018-11-05T09:48:45.218Z,13.60
2018-11-05T09:51:13.503Z,13.50
2018-11-05T09:53:41.743Z,13.70
2018-11-05T09:56:09.981Z,13.70
2018-11-05T09:58:38.232Z,13.60
2018-11-05T10:01:06.616Z,13.60
2018-11-05T10:03:40.368Z,13.60
2018-11-05T10:06:08.406Z,13.60
2018-11-05T10:08:36.648Z,13.70
2018-11-05T10:11:05.161Z,13.70
2018-11-05T10:13:33.306Z,13.80
2018-11-05T10:16:01.523Z,13.90
2018-11-05T10:18:29.776Z,13.90
2018-11-05T10:20:57.991Z,14.00
2018-11-05T10:23:26.182Z,13.90
2018-11-05T10:25:54.392Z,13.90
2018-11-05T10:28:22.647Z,13.90
2018-11-05T10:30:50.869Z,13.80
2018-11-05T10:33:21.113Z,13.90
2018-11-05T10:36:56.709Z,14.00
2018-11-05T10:39:45.393Z,14.00
2018-11-05T10:46:01.573Z,14.10
2018-11-05T11:10:39.441Z,14.70
2018-11-05T11:23:28.960Z,15.10
2018-11-05T11:48:35.877Z,15.20
2018-11-05T11:51:08.599Z,15.10
2018-11-05T11:56:34.672Z,15.00
2018-11-05T12:02:38.274Z,15.30
2018-11-05T13:09:04.054Z,16.20
2018-11-05T13:11:38.464Z,17.80
2018-11-05T13:22:41.096Z,19.70
2018-11-05T13:28:22.057Z,19.80
2018-11-05T13:30:59.663Z,19.60
2018-11-05T13:33:36.802Z,19.40
2018-11-05T13:39:26.440Z,17.70
2018-11-05T13:47:44.019Z,16.10
2018-11-05T14:03:05.130Z,15.90
2018-11-05T14:11:49.976Z,16.20
2018-11-05T14:14:26.002Z,16.10
2018-11-05T14:19:57.377Z,16.10
2018-11-05T14:22:28.379Z,15.80
2018-11-05T14:27:52.316Z,15.70
2018-11-05T14:30:35.083Z,15.60
2018-11-05T14:33:03.777Z,15.50
2018-11-05T14:35:37.160Z,15.50
2018-11-05T14:38:06.514Z,15.50
2018-11-05T14:40:37.349Z,15.50
2018-11-05T14:43:06.327Z,15.40
2018-11-05T14:45:35.060Z,15.40
2018-11-05T14:48:06.026Z,15.40
2018-11-05T14:50:35.942Z,15.50
2018-11-05T14:53:07.283Z,15.50
2018-11-05T14:55:35.950Z,15.40
2018-11-05T14:58:04.941Z,15.30
2018-11-05T15:00:49.110Z,15.20
2018-11-05T15:03:29.064Z,15.10
2018-11-05T15:05:57.845Z,15.00
2018-11-05T15:08:26.970Z,14.90
2018-11-05T15:13:32.555Z,14.90
2018-11-05T15:16:02.322Z,15.00
2018-11-05T15:18:33.344Z,14.80
2018-11-05T15:21:02.099Z,14.80
2018-11-05T15:23:30.690Z,14.80
2018-11-05T15:25:59.434Z,14.90
2018-11-05T15:28:38.638Z,14.90
2018-11-05T15:31:08.922Z,14.90
2018-11-05T15:33:41.301Z,14.80
2018-11-05T15:36:10.038Z,14.80
2018-11-05T15:38:41.472Z,14.80
2018-11-05T15:41:13.755Z,14.70
2018-11-05T15:43:42.880Z,14.70
2018-11-05T15:46:23.563Z,14.60
2018-11-05T15:48:53.907Z,14.60
2018-11-05T15:51:26.693Z,14.40
2018-11-05T15:53:56.948Z,14.40
2018-11-05T16:02:29.748Z,14.20
2018-11-05T16:24:27.486Z,13.80
2018-11-05T16:35:58.505Z,13.70
2018-11-05T16:38:26.919Z,13.60
2018-11-05T16:40:55.191Z,13.70
2018-11-05T16:43:24.505Z,13.60
2018-11-05T16:45:52.918Z,13.60
2018-11-05T16:48:21.258Z,13.60
2018-11-05T16:50:49.548Z,13.50
2018-11-05T16:53:17.850Z,13.60
2018-11-05T16:55:46.174Z,13.60
2018-11-05T16:58:14.556Z,13.60
2018-11-05T17:00:42.871Z,13.50
2018-11-05T17:03:11.160Z,13.50
2018-11-05T17:05:39.399Z,13.40
2018-11-05T17:08:07.688Z,13.40
2018-11-05T17:10:36.157Z,13.30
2018-11-05T17:13:04.780Z,13.40
2018-11-05T17:15:33.074Z,13.30
2018-11-05T17:18:01.413Z,13.20
2018-11-05T17:20:29.708Z,13.20
2018-11-05T17:22:58.036Z,13.20
2018-11-05T17:25:26.355Z,13.20
2018-11-05T17:27:54.782Z,13.10
2018-11-05T17:30:23.325Z,13.10
2018-11-05T17:32:52.026Z,13.10
2018-11-05T17:35:20.439Z,13.10
2018-11-05T17:37:49.086Z,13.10
2018-11-05T17:40:19.764Z,13.00
2018-11-05T17:42:47.991Z,13.00
2018-11-05T17:45:17.373Z,12.90
2018-11-05T17:47:45.842Z,12.90
2018-11-05T17:50:16.536Z,12.90
2018-11-05T17:52:45.156Z,12.90
2018-11-05T17:55:14.204Z,12.90
2018-11-05T17:57:43.404Z,12.90
2018-11-05T18:00:15.778Z,12.90
2018-11-05T18:02:44.127Z,12.90
2018-11-05T18:05:12.439Z,12.80
2018-11-05T18:07:40.750Z,12.80
2018-11-05T18:10:09.206Z,12.80
2018-11-05T18:12:37.493Z,12.80
2018-11-05T18:15:07.679Z,12.70
2018-11-05T18:17:36.076Z,12.70
2018-11-05T18:20:04.655Z,12.80
2018-11-05T18:22:33.003Z,12.70
2018-11-05T18:25:01.297Z,12.70
2018-11-05T18:27:29.620Z,12.80
2018-11-05T18:29:58.013Z,12.70
2018-11-05T18:32:26.289Z,12.70
2018-11-05T18:34:54.554Z,12.70
2018-11-05T18:37:22.940Z,12.70
2018-11-05T18:39:51.281Z,12.60
2018-11-05T18:42:19.566Z,12.60
2018-11-05T18:44:47.870Z,12.60
2018-11-05T18:47:16.239Z,12.60
2018-11-05T18:49:46.873Z,12.50
2018-11-05T18:52:12.859Z,12.50
2018-11-05T18:54:41.124Z,12.60
2018-11-05T18:57:09.569Z,12.60
2018-11-05T18:59:37.943Z,12.50
2018-11-05T19:02:06.247Z,12.60
2018-11-05T19:04:34.529Z,12.50
2018-11-05T19:07:02.852Z,12.50
2018-11-05T19:09:31.593Z,12.50
2018-11-05T19:11:59.824Z,12.50
2018-11-05T19:14:28.112Z,12.40
2018-11-05T19:16:56.468Z,12.40
2018-11-05T19:19:34.697Z,12.50
2018-11-05T19:22:04.780Z,12.40
2018-11-05T19:24:33.404Z,12.30
2018-11-05T19:27:02.183Z,12.30
2018-11-05T19:29:30.595Z,12.30
2018-11-05T19:31:58.914Z,12.30
2018-11-05T19:34:27.217Z,12.20
2018-11-05T19:36:55.580Z,12.20
2018-11-05T19:39:24.043Z,12.20
2018-11-05T19:41:52.335Z,12.20
2018-11-05T19:44:20.933Z,12.20
2018-11-05T19:46:49.272Z,12.10
2018-11-05T19:49:17.932Z,12.10
2018-11-05T19:51:46.253Z,12.10
2018-11-05T19:54:14.735Z,12.10
2018-11-05T19:56:43.158Z,12.10
2018-11-05T19:59:11.545Z,11.90
2018-11-05T20:01:39.814Z,11.90
2018-11-05T20:04:08.102Z,11.80
2018-11-05T20:06:36.411Z,11.80
2018-11-05T20:09:09.884Z,11.80
2018-11-05T20:11:40.552Z,11.70
2018-11-05T20:14:09.163Z,11.80
2018-11-05T20:16:37.488Z,11.80
2018-11-05T20:19:05.926Z,11.80
2018-11-05T20:21:34.219Z,11.70
2018-11-05T20:24:02.517Z,11.70
2018-11-05T20:26:31.239Z,11.70
2018-11-05T20:29:02.717Z,11.70
2018-11-05T20:31:31.451Z,11.70
2018-11-05T20:34:00.091Z,11.70
2018-11-05T20:36:28.098Z,11.70
2018-11-05T20:38:56.412Z,11.70
2018-11-05T20:41:31.833Z,11.70
2018-11-05T20:44:00.338Z,11.80
2018-11-05T20:46:29.379Z,11.70
2018-11-05T20:48:57.634Z,11.70
2018-11-05T20:51:26.029Z,11.70
2018-11-05T20:53:55.685Z,11.80
2018-11-05T20:56:23.993Z,11.70
2018-11-05T20:58:53.466Z,11.70
2018-11-05T21:01:21.853Z,11.70
2018-11-05T21:03:50.455Z,11.70
2018-11-05T21:06:19.444Z,11.70
2018-11-05T21:08:47.743Z,11.70
2018-11-05T21:11:16.077Z,11.70
2018-11-05T21:13:44.486Z,11.60
2018-11-05T21:16:12.814Z,11.60
2018-11-05T21:18:41.345Z,11.50
2018-11-05T21:21:09.723Z,11.50
2018-11-05T21:23:37.963Z,11.50
2018-11-05T21:26:06.641Z,11.50
2018-11-05T21:28:34.885Z,11.50
2018-11-05T21:31:03.184Z,11.50
2018-11-05T21:33:31.571Z,11.50
2018-11-05T21:35:59.886Z,11.40
2018-11-05T21:38:28.141Z,11.50
2018-11-05T21:40:56.458Z,11.50
2018-11-05T21:43:24.722Z,11.50
2018-11-05T21:45:53.081Z,11.50
2018-11-05T21:48:21.473Z,11.50
2018-11-05T21:50:49.771Z,11.50
2018-11-05T21:53:18.075Z,11.50
2018-11-05T21:55:46.443Z,11.50
2018-11-05T21:58:14.788Z,11.40
2018-11-05T22:00:43.138Z,11.50
2018-11-05T22:03:17.675Z,11.60
2018-11-05T22:05:45.950Z,11.60
2018-11-05T22:08:14.235Z,11.60
2018-11-05T22:10:42.537Z,11.70
2018-11-05T22:13:10.831Z,11.60
2018-11-05T22:15:45.638Z,11.60
2018-11-05T22:18:14.477Z,11.60
2018-11-05T22:20:42.795Z,11.60
2018-11-05T22:23:11.089Z,11.60
2018-11-05T22:25:39.454Z,11.70
2018-11-05T22:28:07.794Z,11.50
2018-11-05T22:30:36.119Z,11.50
2018-11-05T22:33:04.607Z,11.50
2018-11-05T22:44:32.409Z,11.40
